createdAt,value
2022-11-17T00:00:04.192Z,10.58
2022-11-17T00:01:04.184Z,10.48
2022-11-17T00:02:04.278Z,10.57
2022-11-17T00:03:04.235Z,10.53
2022-11-17T00:04:04.124Z,10.51
2022-11-17T00:05:04.103Z,10.51
2022-11-17T00:06:04.087Z,10.58
2022-11-17T00:07:04.143Z,10.59
2022-11-17T00:08:04.055Z,10.57
2022-11-17T00:09:04.036Z,10.61
2022-11-17T00:10:04.019Z,10.61
2022-11-17T00:11:03.999Z,10.62
2022-11-17T00:12:03.994Z,10.59
2022-11-17T00:13:03.963Z,10.57
2022-11-17T00:14:03.950Z,10.64
2022-11-17T00:15:03.928Z,10.65
2022-11-17T00:16:03.915Z,10.57
2022-11-17T00:17:03.897Z,10.59
2022-11-17T00:18:03.879Z,10.59
2022-11-17T00:19:03.960Z,10.53
2022-11-17T00:20:03.849Z,10.49
2022-11-17T00:21:11.017Z,10.49
2022-11-17T00:23:07.804Z,10.48
2022-11-17T00:24:07.750Z,10.48
2022-11-17T00:26:11.703Z,10.46
2022-11-17T00:27:11.672Z,10.43
2022-11-17T00:29:15.642Z,10.41
2022-11-17T00:30:15.587Z,10.42
2022-11-17T00:32:08.496Z,10.45
2022-11-17T00:33:08.450Z,10.41
2022-11-17T00:35:12.451Z,10.45
2022-11-17T00:36:12.379Z,10.45
2022-11-17T00:38:16.347Z,10.43
2022-11-17T00:39:16.303Z,10.42
2022-11-17T00:41:20.269Z,10.41
2022-11-17T00:42:20.223Z,10.28
2022-11-17T00:44:24.237Z,10.42
2022-11-17T00:45:24.157Z,10.30
2022-11-17T00:47:28.121Z,10.28
2022-11-17T00:48:28.079Z,10.28
2022-11-17T00:50:32.138Z,10.33
2022-11-17T00:51:32.012Z,10.31
2022-11-17T00:53:36.193Z,10.30
2022-11-17T00:54:35.925Z,10.25
2022-11-17T00:56:39.910Z,10.24
2022-11-17T00:57:39.852Z,10.34
2022-11-17T00:58:39.836Z,10.28
2022-11-17T00:59:39.816Z,10.28
2022-11-17T01:00:39.803Z,10.30
2022-11-17T01:01:39.854Z,10.20
2022-11-17T01:02:39.767Z,10.18
2022-11-17T01:03:39.769Z,10.20
2022-11-17T01:04:39.731Z,10.15
2022-11-17T01:05:39.807Z,10.17
2022-11-17T01:06:39.694Z,10.15
2022-11-17T01:07:39.748Z,10.12
2022-11-17T01:08:39.660Z,10.18
2022-11-17T01:09:39.642Z,10.15
2022-11-17T01:10:39.625Z,10.06
2022-11-17T01:11:39.606Z,10.03
2022-11-17T01:12:39.588Z,10.07
2022-11-17T01:13:39.572Z,10.03
2022-11-17T01:14:39.556Z,10.07
2022-11-17T01:15:39.545Z,10.09
2022-11-17T01:16:39.523Z,10.07
2022-11-17T01:17:39.503Z,10.05
2022-11-17T01:18:39.483Z,10.03
2022-11-17T01:19:39.470Z,10.05
2022-11-17T01:20:39.450Z,10.02
2022-11-17T01:21:39.528Z,10.06
2022-11-17T01:22:39.417Z,10.02
2022-11-17T01:23:39.395Z,10.05
2022-11-17T01:24:39.386Z,10.03
2022-11-17T01:25:39.364Z,10.10
2022-11-17T01:26:39.344Z,10.13
2022-11-17T01:27:39.330Z,10.09
2022-11-17T01:28:39.310Z,10.12
2022-11-17T01:29:39.290Z,10.13
2022-11-17T01:30:39.272Z,10.20
2022-11-17T01:31:39.256Z,10.15
2022-11-17T01:32:39.249Z,10.13
2022-11-17T01:33:39.222Z,10.12
2022-11-17T01:34:39.206Z,10.10
2022-11-17T01:35:39.185Z,10.13
2022-11-17T01:36:39.169Z,10.13
2022-11-17T01:37:39.158Z,10.18
2022-11-17T01:38:39.132Z,10.12
2022-11-17T01:39:39.114Z,10.17
2022-11-17T01:40:39.100Z,10.17
2022-11-17T01:41:39.080Z,10.10
2022-11-17T01:42:39.066Z,10.15
2022-11-17T01:43:39.044Z,10.17
2022-11-17T01:44:39.027Z,10.23
2022-11-17T01:45:39.015Z,10.17
2022-11-17T01:46:38.994Z,10.12
2022-11-17T01:47:38.973Z,10.06
2022-11-17T01:48:38.963Z,10.12
2022-11-17T01:49:38.940Z,10.12
2022-11-17T01:50:38.927Z,10.17
2022-11-17T01:51:38.904Z,10.09
2022-11-17T01:52:38.886Z,10.07
2022-11-17T01:53:38.929Z,10.15
2022-11-17T01:54:38.851Z,10.17
2022-11-17T01:55:38.832Z,10.09
2022-11-17T01:56:38.817Z,10.10
2022-11-17T01:57:38.801Z,10.13
2022-11-17T01:58:38.782Z,10.02
2022-11-17T01:59:38.761Z,10.03
2022-11-17T02:00:38.758Z,9.99
2022-11-17T02:01:38.775Z,10.03
2022-11-17T02:02:38.709Z,10.06
2022-11-17T02:03:38.826Z,10.03
2022-11-17T02:04:38.673Z,10.05
2022-11-17T02:05:38.661Z,10.02
2022-11-17T02:06:38.637Z,10.05
2022-11-17T02:07:38.725Z,10.02
2022-11-17T02:08:38.601Z,9.92
2022-11-17T02:09:38.593Z,9.92
2022-11-17T02:10:38.568Z,9.90
2022-11-17T02:11:38.552Z,9.92
2022-11-17T02:12:38.533Z,9.97
2022-11-17T02:13:38.514Z,9.90
2022-11-17T02:14:38.499Z,9.92
2022-11-17T02:15:38.482Z,9.97
2022-11-17T02:16:38.464Z,9.91
2022-11-17T02:17:38.446Z,9.91
2022-11-17T02:18:38.428Z,10.05
2022-11-17T02:19:38.411Z,10.00
2022-11-17T02:20:38.390Z,9.99
2022-11-17T02:21:38.373Z,10.03
2022-11-17T02:22:38.355Z,10.02
2022-11-17T02:23:38.347Z,10.02
2022-11-17T02:24:38.325Z,10.06
2022-11-17T02:25:38.304Z,10.02
2022-11-17T02:26:38.284Z,10.07
2022-11-17T02:27:38.269Z,10.09
2022-11-17T02:28:38.246Z,10.03
2022-11-17T02:29:38.232Z,10.05
2022-11-17T02:30:38.213Z,10.02
2022-11-17T02:31:38.200Z,10.07
2022-11-17T02:32:38.185Z,10.00
2022-11-17T02:33:38.386Z,10.10
2022-11-17T02:34:38.144Z,10.15
2022-11-17T02:35:38.125Z,10.18
2022-11-17T02:36:38.107Z,10.18
2022-11-17T02:37:38.092Z,10.17
2022-11-17T02:38:38.075Z,10.21
2022-11-17T02:39:38.062Z,10.24
2022-11-17T02:40:38.034Z,10.31
2022-11-17T02:41:38.020Z,10.18
2022-11-17T02:42:38.004Z,10.33
2022-11-17T02:43:38.291Z,10.33
2022-11-17T02:44:37.966Z,10.31
2022-11-17T02:45:37.951Z,10.36
2022-11-17T02:46:37.928Z,10.33
2022-11-17T02:47:37.921Z,10.34
2022-11-17T02:48:37.896Z,10.31
2022-11-17T02:49:37.876Z,10.45
2022-11-17T02:50:37.859Z,10.42
2022-11-17T02:51:37.843Z,10.42
2022-11-17T02:52:37.831Z,10.45
2022-11-17T02:53:38.340Z,10.41
2022-11-17T02:54:37.788Z,10.43
2022-11-17T02:55:37.774Z,10.43
2022-11-17T02:56:37.753Z,10.42
2022-11-17T02:57:37.832Z,10.43
2022-11-17T02:58:37.716Z,10.46
2022-11-17T02:59:37.703Z,10.43
2022-11-17T03:00:37.681Z,10.53
2022-11-17T03:01:37.739Z,10.64
2022-11-17T03:02:37.648Z,10.57
2022-11-17T03:03:37.875Z,10.59
2022-11-17T03:04:37.611Z,10.67
2022-11-17T03:05:37.597Z,10.68
2022-11-17T03:06:37.577Z,10.75
2022-11-17T03:07:37.628Z,10.62
2022-11-17T03:08:37.543Z,10.69
2022-11-17T03:09:37.526Z,10.67
2022-11-17T03:10:37.505Z,10.67
2022-11-17T03:11:37.491Z,10.69
2022-11-17T03:12:37.474Z,10.67
2022-11-17T03:13:37.806Z,10.67
2022-11-17T03:14:37.438Z,10.68
2022-11-17T03:15:37.420Z,10.65
2022-11-17T03:16:37.401Z,10.67
2022-11-17T03:17:37.387Z,10.65
2022-11-17T03:18:37.365Z,10.64
2022-11-17T03:19:37.356Z,10.55
2022-11-17T03:20:37.332Z,10.57
2022-11-17T03:21:37.314Z,10.55
2022-11-17T03:22:37.299Z,10.61
2022-11-17T03:23:37.671Z,10.61
2022-11-17T03:24:37.265Z,10.62
2022-11-17T03:25:37.245Z,10.57
2022-11-17T03:26:37.229Z,10.57
2022-11-17T03:27:37.210Z,10.59
2022-11-17T03:28:37.197Z,10.58
2022-11-17T03:29:37.272Z,10.55
2022-11-17T03:30:37.761Z,10.59
2022-11-17T03:31:37.139Z,10.57
2022-11-17T03:32:37.120Z,10.58
2022-11-17T03:33:37.558Z,10.55
2022-11-17T03:34:37.084Z,10.51
2022-11-17T03:35:37.069Z,10.61
2022-11-17T03:36:37.053Z,10.57
2022-11-17T03:37:37.035Z,10.59
2022-11-17T03:38:37.017Z,10.59
2022-11-17T03:39:36.998Z,10.61
2022-11-17T03:40:36.981Z,10.69
2022-11-17T03:41:36.969Z,10.64
2022-11-17T03:42:36.951Z,10.67
2022-11-17T03:43:37.330Z,10.71
2022-11-17T03:44:36.912Z,10.72
2022-11-17T03:45:36.988Z,10.65
2022-11-17T03:46:36.876Z,10.71
2022-11-17T03:47:36.860Z,10.77
2022-11-17T03:48:36.841Z,10.72
2022-11-17T03:49:36.824Z,10.71
2022-11-17T03:50:36.807Z,10.71
2022-11-17T03:51:36.790Z,10.65
2022-11-17T03:52:36.773Z,10.68
2022-11-17T03:53:37.002Z,10.75
2022-11-17T03:54:36.738Z,10.69
2022-11-17T03:55:36.724Z,10.65
2022-11-17T03:56:36.703Z,10.68
2022-11-17T03:57:36.687Z,10.62
2022-11-17T03:58:36.668Z,10.62
2022-11-17T03:59:36.651Z,10.65
2022-11-17T04:00:36.631Z,10.72
2022-11-17T04:01:36.688Z,10.68
2022-11-17T04:02:36.597Z,10.69
2022-11-17T04:03:36.872Z,10.69
2022-11-17T04:04:36.562Z,10.75
2022-11-17T04:05:36.545Z,10.84
2022-11-17T04:06:36.529Z,10.87
2022-11-17T04:07:36.573Z,10.84
2022-11-17T04:08:36.507Z,10.87
2022-11-17T04:09:36.477Z,10.83
2022-11-17T04:10:36.456Z,10.89
2022-11-17T04:11:36.449Z,10.84
2022-11-17T04:12:36.421Z,10.82
2022-11-17T04:13:36.860Z,10.71
2022-11-17T04:14:36.390Z,10.72
2022-11-17T04:15:36.369Z,10.77
2022-11-17T04:16:36.354Z,10.68
2022-11-17T04:17:36.338Z,10.71
2022-11-17T04:18:36.319Z,10.67
2022-11-17T04:19:36.303Z,10.71
2022-11-17T04:20:36.283Z,10.67
2022-11-17T04:21:36.269Z,10.69
2022-11-17T04:22:36.248Z,10.72
2022-11-17T04:23:36.501Z,10.68
2022-11-17T04:24:36.221Z,10.71
2022-11-17T04:25:36.204Z,10.76
2022-11-17T04:26:36.178Z,10.76
2022-11-17T04:27:36.177Z,10.80
2022-11-17T04:28:36.143Z,10.69
2022-11-17T04:29:36.132Z,10.72
2022-11-17T04:30:36.109Z,10.80
2022-11-17T04:31:36.095Z,10.83
2022-11-17T04:32:36.082Z,10.89
2022-11-17T04:33:36.551Z,10.83
2022-11-17T04:34:36.036Z,10.87
2022-11-17T04:35:36.030Z,10.90
2022-11-17T04:36:36.003Z,10.94
2022-11-17T04:37:35.988Z,10.89
2022-11-17T04:38:35.976Z,11.02
2022-11-17T04:39:35.953Z,11.02
2022-11-17T04:40:35.937Z,10.97
2022-11-17T04:41:35.919Z,11.02
2022-11-17T04:42:35.902Z,10.97
2022-11-17T04:43:36.210Z,10.94
2022-11-17T04:44:35.865Z,10.89
2022-11-17T04:45:35.885Z,10.84
2022-11-17T04:46:35.828Z,10.75
2022-11-17T04:47:35.814Z,10.69
2022-11-17T04:48:35.809Z,10.69
2022-11-17T04:49:35.871Z,10.61
2022-11-17T04:50:35.761Z,10.58
2022-11-17T04:51:35.763Z,10.48
2022-11-17T04:52:35.728Z,10.49
2022-11-17T04:53:35.987Z,10.39
2022-11-17T04:54:35.705Z,10.41
2022-11-17T04:55:35.675Z,10.43
2022-11-17T04:56:35.683Z,10.45
2022-11-17T04:57:35.640Z,10.36
2022-11-17T04:58:35.619Z,10.45
2022-11-17T04:59:35.600Z,10.33
2022-11-17T05:00:35.584Z,10.38
2022-11-17T05:01:35.569Z,10.33
2022-11-17T05:02:35.588Z,10.30
2022-11-17T05:03:35.848Z,10.31
2022-11-17T05:04:35.515Z,10.30
2022-11-17T05:05:35.499Z,10.30
2022-11-17T05:06:35.475Z,10.18
2022-11-17T05:07:35.518Z,10.21
2022-11-17T05:08:35.443Z,10.18
2022-11-17T05:09:35.424Z,10.23
2022-11-17T05:10:35.481Z,10.28
2022-11-17T05:11:35.391Z,10.28
2022-11-17T05:12:35.376Z,10.23
2022-11-17T05:13:35.660Z,10.20
2022-11-17T05:14:35.338Z,10.17
2022-11-17T05:15:35.320Z,10.18
2022-11-17T05:16:35.300Z,10.13
2022-11-17T05:17:35.284Z,10.13
2022-11-17T05:18:35.267Z,10.02
2022-11-17T05:19:35.253Z,10.05
2022-11-17T05:20:35.229Z,10.03
2022-11-17T05:21:35.235Z,10.06
2022-11-17T05:22:35.198Z,9.88
2022-11-17T05:23:35.525Z,9.90
2022-11-17T05:24:35.158Z,9.90
2022-11-17T05:25:35.144Z,9.77
2022-11-17T05:26:35.123Z,9.84
2022-11-17T05:27:35.106Z,9.82
2022-11-17T05:28:35.090Z,9.80
2022-11-17T05:29:35.071Z,9.64
2022-11-17T05:30:35.051Z,9.77
2022-11-17T05:31:35.034Z,9.67
2022-11-17T05:32:35.018Z,9.76
2022-11-17T05:33:37.768Z,9.70
2022-11-17T05:34:34.985Z,9.76
2022-11-17T05:35:34.967Z,9.82
2022-11-17T05:36:34.943Z,9.70
2022-11-17T05:37:34.932Z,9.80
2022-11-17T05:38:34.909Z,9.81
2022-11-17T05:39:34.892Z,9.64
2022-11-17T05:40:34.880Z,9.67
2022-11-17T05:41:34.859Z,9.74
2022-11-17T05:42:34.836Z,9.70
2022-11-17T05:43:35.151Z,9.72
2022-11-17T05:44:34.809Z,9.76
2022-11-17T05:45:34.785Z,9.73
2022-11-17T05:46:34.763Z,9.80
2022-11-17T05:47:34.748Z,9.69
2022-11-17T05:48:34.734Z,9.74
2022-11-17T05:49:34.744Z,9.82
2022-11-17T05:50:34.690Z,9.80
2022-11-17T05:51:34.675Z,9.80
2022-11-17T05:52:34.659Z,9.76
2022-11-17T05:53:35.043Z,9.80
2022-11-17T05:54:34.621Z,9.80
2022-11-17T05:55:34.604Z,9.80
2022-11-17T05:56:34.592Z,9.64
2022-11-17T05:57:34.573Z,9.76
2022-11-17T05:58:34.548Z,9.69
2022-11-17T05:59:34.529Z,9.74
2022-11-17T06:00:34.513Z,9.74
2022-11-17T06:01:34.499Z,9.77
2022-11-17T06:02:34.477Z,9.72
2022-11-17T06:03:34.890Z,9.70
2022-11-17T06:04:34.494Z,9.72
2022-11-17T06:05:34.428Z,9.67
2022-11-17T06:06:34.408Z,9.77
2022-11-17T06:07:34.448Z,9.72
2022-11-17T06:08:34.369Z,9.73
2022-11-17T06:09:34.445Z,9.76
2022-11-17T06:10:34.333Z,9.73
2022-11-17T06:11:34.315Z,9.72
2022-11-17T06:12:34.298Z,9.66
2022-11-17T06:13:34.606Z,9.63
2022-11-17T06:14:34.275Z,9.64
2022-11-17T06:15:34.246Z,9.74
2022-11-17T06:16:34.226Z,9.80
2022-11-17T06:17:34.210Z,9.81
2022-11-17T06:18:34.190Z,9.73
2022-11-17T06:19:34.173Z,9.70
2022-11-17T06:20:34.158Z,9.72
2022-11-17T06:22:04.439Z,9.73
2022-11-17T06:22:34.116Z,9.74
2022-11-17T06:23:34.472Z,9.73
2022-11-17T06:24:34.089Z,9.76
2022-11-17T06:25:34.162Z,9.81
2022-11-17T06:26:34.046Z,9.67
2022-11-17T06:27:34.036Z,9.76
2022-11-17T06:28:34.013Z,9.72
2022-11-17T06:29:34.768Z,9.70
2022-11-17T06:30:33.975Z,9.74
2022-11-17T06:31:33.961Z,9.80
2022-11-17T06:32:41.282Z,9.82
2022-11-17T06:34:37.915Z,9.81
2022-11-17T06:35:37.875Z,9.80
2022-11-17T06:36:37.858Z,9.77
2022-11-17T06:37:37.839Z,9.77
2022-11-17T06:38:37.822Z,9.77
2022-11-17T06:39:37.802Z,9.73
2022-11-17T06:40:37.795Z,9.76
2022-11-17T06:41:37.767Z,9.72
2022-11-17T06:42:37.752Z,9.77
2022-11-17T06:43:38.132Z,9.82
2022-11-17T06:44:37.717Z,9.74
2022-11-17T06:45:37.696Z,9.81
2022-11-17T06:46:37.678Z,9.74
2022-11-17T06:47:37.660Z,9.76
2022-11-17T06:48:38.219Z,9.82
2022-11-17T06:49:37.624Z,9.74
2022-11-17T06:50:37.608Z,9.74
2022-11-17T06:51:42.322Z,9.69
2022-11-17T06:52:37.571Z,9.72
2022-11-17T06:53:37.873Z,9.72
2022-11-17T06:54:37.538Z,9.70
2022-11-17T06:55:37.516Z,9.74
2022-11-17T06:56:37.598Z,9.66
2022-11-17T06:57:37.480Z,9.77
2022-11-17T06:58:37.847Z,9.80
2022-11-17T06:59:37.448Z,9.82
2022-11-17T07:00:37.485Z,9.80
2022-11-17T07:01:37.417Z,9.77
2022-11-17T07:02:37.393Z,9.72
2022-11-17T07:03:37.563Z,9.76
2022-11-17T07:04:37.358Z,9.76
2022-11-17T07:05:39.902Z,9.76
2022-11-17T07:06:37.321Z,9.69
2022-11-17T07:07:37.349Z,9.74
2022-11-17T07:08:37.578Z,9.76
2022-11-17T07:09:37.267Z,9.82
2022-11-17T07:10:37.252Z,9.85
2022-11-17T07:11:37.233Z,9.82
2022-11-17T07:12:37.230Z,9.87
2022-11-17T07:13:37.200Z,9.91
2022-11-17T07:14:37.178Z,9.91
2022-11-17T07:15:37.160Z,9.88
2022-11-17T07:16:37.144Z,10.00
2022-11-17T07:17:37.123Z,9.97
2022-11-17T07:18:37.394Z,9.99
2022-11-17T07:19:37.088Z,10.06
2022-11-17T07:20:37.073Z,9.99
2022-11-17T07:21:37.054Z,10.03
2022-11-17T07:22:37.039Z,10.12
2022-11-17T07:23:37.034Z,10.13
2022-11-17T07:24:37.003Z,10.13
2022-11-17T07:25:36.980Z,10.21
2022-11-17T07:26:36.965Z,10.25
2022-11-17T07:27:36.947Z,10.23
2022-11-17T07:28:37.388Z,10.30
2022-11-17T07:29:36.911Z,10.34
2022-11-17T07:30:36.895Z,10.28
2022-11-17T07:31:36.874Z,10.43
2022-11-17T07:32:36.858Z,10.46
2022-11-17T07:33:36.845Z,10.57
2022-11-17T07:34:36.826Z,10.65
2022-11-17T07:35:36.805Z,10.69
2022-11-17T07:36:36.789Z,10.75
2022-11-17T07:37:36.770Z,10.76
2022-11-17T07:38:37.029Z,10.75
2022-11-17T07:39:36.735Z,10.82
2022-11-17T07:40:36.720Z,10.82
2022-11-17T07:41:36.701Z,10.83
2022-11-17T07:42:36.685Z,10.90
2022-11-17T07:43:36.673Z,10.84
2022-11-17T07:44:36.724Z,10.82
2022-11-17T07:45:36.629Z,10.76
2022-11-17T07:46:36.615Z,10.76
2022-11-17T07:47:36.595Z,10.77
2022-11-17T07:48:37.055Z,10.79
2022-11-17T07:49:36.563Z,10.80
2022-11-17T07:50:36.545Z,10.72
2022-11-17T07:51:36.526Z,10.76
2022-11-17T07:52:41.279Z,10.77
2022-11-17T07:53:36.492Z,10.77
2022-11-17T07:54:36.476Z,10.79
2022-11-17T07:55:36.457Z,10.76
2022-11-17T07:56:36.442Z,10.75
2022-11-17T07:57:36.422Z,10.75
2022-11-17T07:58:36.693Z,10.80
2022-11-17T07:59:36.386Z,10.72
2022-11-17T08:00:36.431Z,10.80
2022-11-17T08:01:36.351Z,10.72
2022-11-17T08:02:36.335Z,10.68
2022-11-17T08:03:36.369Z,10.79
2022-11-17T08:04:36.318Z,10.84
2022-11-17T08:05:41.641Z,10.84
2022-11-17T08:06:36.267Z,10.82
2022-11-17T08:07:36.304Z,10.84
2022-11-17T08:08:36.552Z,10.90
2022-11-17T08:09:36.213Z,10.86
2022-11-17T08:10:36.198Z,10.95
2022-11-17T08:11:36.179Z,10.94
2022-11-17T08:12:36.162Z,10.90
2022-11-17T08:13:36.142Z,10.98
2022-11-17T08:14:36.127Z,11.00
2022-11-17T08:15:36.109Z,10.98
2022-11-17T08:16:36.191Z,10.98
2022-11-17T08:17:36.075Z,11.05
2022-11-17T08:18:36.650Z,11.05
2022-11-17T08:19:36.040Z,11.15
2022-11-17T08:20:36.023Z,11.08
2022-11-17T08:21:36.004Z,11.04
2022-11-17T08:22:35.991Z,11.08
2022-11-17T08:23:35.976Z,11.12
2022-11-17T08:24:35.954Z,11.22
2022-11-17T08:25:35.937Z,11.13
2022-11-17T08:26:35.919Z,11.16
2022-11-17T08:27:35.901Z,11.19
2022-11-17T08:28:36.095Z,11.27
2022-11-17T08:29:35.868Z,11.31
2022-11-17T08:30:35.854Z,11.34
2022-11-17T08:31:35.835Z,11.31
2022-11-17T08:32:35.915Z,11.31
2022-11-17T08:33:35.799Z,11.33
2022-11-17T08:34:35.783Z,11.31
2022-11-17T08:35:37.651Z,11.33
2022-11-17T08:36:35.745Z,11.23
2022-11-17T08:37:35.732Z,11.25
2022-11-17T08:38:36.074Z,11.25
2022-11-17T08:39:35.693Z,11.23
2022-11-17T08:40:35.680Z,11.34
2022-11-17T08:41:35.660Z,11.30
2022-11-17T08:42:35.646Z,11.25
2022-11-17T08:43:35.636Z,11.30
2022-11-17T08:44:35.610Z,11.31
2022-11-17T08:45:35.594Z,11.31
2022-11-17T08:46:35.577Z,11.27
2022-11-17T08:47:35.557Z,11.31
2022-11-17T08:48:36.004Z,11.31
2022-11-17T08:49:35.526Z,11.31
2022-11-17T08:50:35.508Z,11.31
2022-11-17T08:51:35.490Z,11.31
2022-11-17T08:52:35.473Z,11.30
2022-11-17T08:53:35.455Z,11.34
2022-11-17T08:54:35.438Z,11.27
2022-11-17T08:55:40.586Z,11.31
2022-11-17T08:56:35.405Z,11.37
2022-11-17T08:57:35.443Z,11.30
2022-11-17T08:58:35.572Z,11.26
2022-11-17T08:59:35.350Z,11.33
2022-11-17T09:00:35.420Z,11.20
2022-11-17T09:01:35.362Z,11.18
2022-11-17T09:02:35.301Z,11.26
2022-11-17T09:03:35.281Z,11.15
2022-11-17T09:04:35.364Z,11.13
2022-11-17T09:05:35.263Z,11.16
2022-11-17T09:06:35.233Z,11.20
2022-11-17T09:07:35.254Z,11.10
2022-11-17T09:08:50.654Z,11.12
2022-11-17T09:09:35.207Z,11.12
2022-11-17T09:10:35.164Z,11.07
2022-11-17T09:11:35.144Z,11.15
2022-11-17T09:12:35.130Z,11.12
2022-11-17T09:13:35.110Z,11.19
2022-11-17T09:14:35.095Z,11.19
2022-11-17T09:15:35.077Z,11.18
2022-11-17T09:16:35.059Z,11.20
2022-11-17T09:17:35.041Z,11.16
2022-11-17T09:18:35.345Z,11.25
2022-11-17T09:19:35.005Z,11.16
2022-11-17T09:20:35.099Z,11.19
2022-11-17T09:21:34.969Z,11.18
2022-11-17T09:22:34.954Z,11.16
2022-11-17T09:23:35.340Z,11.25
2022-11-17T09:24:34.919Z,11.27
2022-11-17T09:25:34.906Z,11.33
2022-11-17T09:26:34.888Z,11.31
2022-11-17T09:27:34.865Z,11.34
2022-11-17T09:28:35.326Z,11.34
2022-11-17T09:29:34.835Z,11.31
2022-11-17T09:30:34.816Z,11.34
2022-11-17T09:31:34.811Z,11.30
2022-11-17T09:32:34.781Z,11.27
2022-11-17T09:33:34.772Z,11.26
2022-11-17T09:34:34.830Z,11.34
2022-11-17T09:35:34.729Z,11.41
2022-11-17T09:36:34.823Z,11.37
2022-11-17T09:37:34.694Z,11.48
2022-11-17T09:38:34.937Z,11.59
2022-11-17T09:39:34.660Z,11.73
2022-11-17T09:40:37.804Z,11.91
2022-11-17T09:41:34.633Z,11.97
2022-11-17T09:42:34.615Z,11.99
2022-11-17T09:43:34.593Z,12.08
2022-11-17T09:44:34.587Z,12.15
2022-11-17T09:45:34.565Z,12.32
2022-11-17T09:46:34.544Z,12.37
2022-11-17T09:47:34.529Z,12.43
2022-11-17T09:48:41.226Z,12.45
2022-11-17T09:49:34.493Z,12.48
2022-11-17T09:50:34.480Z,12.36
2022-11-17T09:51:34.459Z,12.32
2022-11-17T09:52:34.546Z,12.37
2022-11-17T09:53:34.606Z,12.30
2022-11-17T09:54:34.413Z,12.28
2022-11-17T09:55:34.687Z,12.32
2022-11-17T09:56:34.375Z,12.51
2022-11-17T09:57:34.363Z,12.68
2022-11-17T09:58:34.698Z,12.63
2022-11-17T09:59:34.332Z,12.75
2022-11-17T10:00:34.313Z,12.83
2022-11-17T10:01:34.297Z,12.93
2022-11-17T10:02:34.348Z,12.88
2022-11-17T10:03:36.481Z,12.93
2022-11-17T10:04:34.248Z,12.83
2022-11-17T10:05:34.229Z,12.81
2022-11-17T10:06:34.216Z,12.72
2022-11-17T10:07:34.223Z,12.66
2022-11-17T10:08:34.180Z,12.63
2022-11-17T10:09:34.163Z,12.61
2022-11-17T10:10:34.149Z,12.45
2022-11-17T10:11:34.156Z,12.36
2022-11-17T10:12:34.116Z,12.29
2022-11-17T10:13:34.401Z,12.21
2022-11-17T10:14:34.083Z,12.18
2022-11-17T10:15:34.066Z,12.12
2022-11-17T10:16:34.047Z,12.18
2022-11-17T10:17:34.030Z,12.11
2022-11-17T10:18:37.912Z,12.12
2022-11-17T10:19:33.997Z,12.03
2022-11-17T10:20:33.982Z,12.07
2022-11-17T10:21:33.965Z,12.03
2022-11-17T10:22:33.950Z,12.00
2022-11-17T10:23:34.198Z,11.88
2022-11-17T10:24:34.022Z,12.00
2022-11-17T10:25:33.898Z,11.89
2022-11-17T10:26:33.885Z,11.89
2022-11-17T10:27:34.146Z,11.85
2022-11-17T10:28:33.851Z,11.85
2022-11-17T10:29:33.834Z,11.88
2022-11-17T10:30:33.818Z,11.88
2022-11-17T10:31:33.799Z,11.73
2022-11-17T10:32:33.792Z,11.73
2022-11-17T10:33:34.014Z,11.71
2022-11-17T10:34:40.253Z,11.74
2022-11-17T10:35:33.731Z,11.70
2022-11-17T10:36:33.935Z,11.68
2022-11-17T10:37:33.714Z,11.71
2022-11-17T10:38:33.685Z,11.81
2022-11-17T10:39:33.667Z,12.02
2022-11-17T10:40:33.684Z,12.47
2022-11-17T10:41:33.634Z,12.83
2022-11-17T10:42:33.616Z,13.26
2022-11-17T10:43:33.908Z,13.73
2022-11-17T10:44:33.583Z,14.22
2022-11-17T10:45:33.569Z,14.52
2022-11-17T10:46:44.919Z,14.61
2022-11-17T10:47:33.532Z,14.74
2022-11-17T10:48:33.595Z,14.59
2022-11-17T10:49:33.505Z,14.59
2022-11-17T10:50:33.490Z,14.70
2022-11-17T10:51:33.473Z,14.73
2022-11-17T10:52:33.457Z,14.77
2022-11-17T10:53:34.986Z,14.79
2022-11-17T10:54:33.424Z,14.78
2022-11-17T10:55:33.410Z,14.87
2022-11-17T10:56:33.398Z,14.86
2022-11-17T10:57:33.384Z,14.87
2022-11-17T10:58:33.363Z,14.66
2022-11-17T10:59:33.348Z,14.56
2022-11-17T11:00:33.334Z,14.36
2022-11-17T11:01:33.361Z,14.18
2022-11-17T11:02:33.302Z,14.07
2022-11-17T11:03:33.530Z,13.83
2022-11-17T11:04:33.269Z,13.71
2022-11-17T11:05:33.259Z,13.49
2022-11-17T11:06:33.243Z,13.24
2022-11-17T11:07:33.265Z,13.19
2022-11-17T11:08:33.208Z,13.06
2022-11-17T11:09:33.201Z,12.90
2022-11-17T11:10:33.181Z,12.78
2022-11-17T11:11:36.260Z,12.62
2022-11-17T11:12:33.152Z,12.61
2022-11-17T11:13:33.129Z,12.48
2022-11-17T11:14:33.113Z,12.51
2022-11-17T11:15:33.098Z,12.40
2022-11-17T11:16:33.081Z,12.35
2022-11-17T11:17:33.064Z,12.25
2022-11-17T11:18:33.046Z,12.23
2022-11-17T11:19:33.032Z,12.20
2022-11-17T11:20:33.015Z,12.17
2022-11-17T11:21:32.999Z,12.20
2022-11-17T11:22:32.981Z,12.29
2022-11-17T11:23:32.967Z,12.25
2022-11-17T11:24:32.949Z,12.39
2022-11-17T11:25:32.935Z,12.29
2022-11-17T11:26:32.917Z,12.25
2022-11-17T11:27:32.902Z,12.33
2022-11-17T11:28:32.882Z,12.21
2022-11-17T11:29:32.867Z,12.25
2022-11-17T11:30:32.851Z,12.07
2022-11-17T11:31:32.835Z,12.18
2022-11-17T11:32:32.818Z,12.15
2022-11-17T11:33:32.803Z,12.11
2022-11-17T11:34:32.788Z,12.14
2022-11-17T11:35:32.766Z,12.15
2022-11-17T11:36:32.752Z,12.20
2022-11-17T11:37:32.740Z,12.15
2022-11-17T11:38:32.717Z,12.21
2022-11-17T11:39:32.702Z,12.21
2022-11-17T11:40:32.684Z,12.25
2022-11-17T11:41:32.668Z,12.29
2022-11-17T11:42:32.649Z,12.18
2022-11-17T11:43:32.635Z,12.28
2022-11-17T11:44:32.617Z,12.23
2022-11-17T11:45:32.603Z,12.21
2022-11-17T11:46:32.590Z,12.18
2022-11-17T11:47:32.568Z,12.18
2022-11-17T11:48:32.549Z,12.08
2022-11-17T11:49:32.545Z,12.08
2022-11-17T11:50:34.514Z,12.07
2022-11-17T11:51:32.501Z,12.05
2022-11-17T11:52:32.488Z,11.91
2022-11-17T11:53:32.471Z,11.97
2022-11-17T11:54:32.455Z,11.83
2022-11-17T11:55:32.438Z,11.74
2022-11-17T11:56:32.420Z,11.70
2022-11-17T11:57:32.404Z,11.60
2022-11-17T11:58:32.399Z,11.58
2022-11-17T11:59:32.371Z,11.51
2022-11-17T12:00:32.364Z,11.55
2022-11-17T12:01:32.342Z,11.43
2022-11-17T12:02:32.334Z,11.43
2022-11-17T12:03:32.381Z,11.34
2022-11-17T12:04:32.284Z,11.35
2022-11-17T12:05:32.269Z,11.35
2022-11-17T12:06:32.251Z,11.38
2022-11-17T12:07:32.249Z,11.31
2022-11-17T12:08:32.216Z,11.33
2022-11-17T12:09:32.202Z,11.23
2022-11-17T12:10:32.182Z,11.16
2022-11-17T12:11:32.176Z,11.18
2022-11-17T12:12:32.150Z,11.12
2022-11-17T12:13:32.131Z,11.12
2022-11-17T12:14:32.113Z,11.04
2022-11-17T12:15:32.096Z,11.02
2022-11-17T12:16:32.078Z,11.04
2022-11-17T12:17:32.062Z,10.95
2022-11-17T12:18:32.048Z,11.01
2022-11-17T12:19:32.029Z,10.94
2022-11-17T12:20:32.009Z,10.94
2022-11-17T12:21:31.997Z,10.90
2022-11-17T12:22:31.989Z,10.87
2022-11-17T12:23:31.959Z,10.90
2022-11-17T12:24:31.941Z,10.83
2022-11-17T12:25:31.928Z,10.89
2022-11-17T12:26:31.906Z,10.90
2022-11-17T12:27:31.890Z,10.87
2022-11-17T12:28:31.877Z,10.92
2022-11-17T12:29:31.875Z,10.86
2022-11-17T12:30:31.838Z,10.84
2022-11-17T12:31:31.821Z,10.84
2022-11-17T12:32:31.809Z,10.76
2022-11-17T12:33:39.457Z,10.72
2022-11-17T12:35:36.242Z,10.82
2022-11-17T12:36:36.230Z,10.76
2022-11-17T12:37:36.182Z,10.82
2022-11-17T12:38:36.187Z,10.71
2022-11-17T12:39:36.146Z,10.71
2022-11-17T12:40:36.132Z,10.75
2022-11-17T12:41:36.113Z,10.69
2022-11-17T12:42:36.097Z,10.72
2022-11-17T12:43:36.080Z,10.69
2022-11-17T12:44:36.059Z,10.61
2022-11-17T12:45:40.614Z,10.61
2022-11-17T12:46:36.022Z,10.55
2022-11-17T12:47:36.055Z,10.59
2022-11-17T12:48:36.143Z,10.57
2022-11-17T12:49:35.991Z,10.53
2022-11-17T12:50:35.967Z,10.49
2022-11-17T12:51:35.940Z,10.51
2022-11-17T12:52:35.923Z,10.42
2022-11-17T12:53:35.899Z,10.46
2022-11-17T12:54:35.888Z,10.48
2022-11-17T12:55:35.865Z,10.43
2022-11-17T12:56:35.849Z,10.45
2022-11-17T12:57:35.830Z,10.42
2022-11-17T12:58:35.812Z,10.39
2022-11-17T12:59:35.793Z,10.46
2022-11-17T13:00:35.774Z,10.43
2022-11-17T13:01:35.785Z,10.43
2022-11-17T13:02:35.748Z,10.27
2022-11-17T13:03:35.742Z,10.28
2022-11-17T13:04:35.711Z,10.36
2022-11-17T13:05:35.707Z,10.34
2022-11-17T13:06:36.675Z,10.36
2022-11-17T13:07:35.702Z,10.41
2022-11-17T13:08:35.643Z,10.42
2022-11-17T13:09:35.616Z,10.45
2022-11-17T13:10:35.599Z,10.36